Time;durP1;ratioP1;P1;durP2;ratioP2;P2;SDS_P1;SDS_P2;PMS_P1;PMS_P2;Temp;Humidity;BMP_temperature;BMP_pressure;BME280_temperature;BME280_humidity;BME280_pressure;Samples;Min_cycle;Max_cycle;Signal;HPM_P1;HPM_P2
2023/09/28 00:00:58;;;;;;;6.80;5.70;;;14.80;99.90;;;;;;5076270;28;20703;-79
2023/09/28 00:03:24;;;;;;;7.80;7.07;;;14.80;99.90;;;;;;5077104;28;20167;-79
2023/09/28 00:05:50;;;;;;;6.57;5.90;;;14.80;99.90;;;;;;5079323;28;20686;-80
2023/09/28 00:08:16;;;;;;;7.63;5.93;;;14.80;99.90;;;;;;5092375;28;20227;-79
2023/09/28 00:10:42;;;;;;;7.07;6.10;;;14.80;99.90;;;;;;5075452;28;20238;-79
2023/09/28 00:13:08;;;;;;;7.07;6.47;;;14.80;99.90;;;;;;5075249;28;20221;-80
2023/09/28 00:15:34;;;;;;;9.10;6.70;;;14.70;99.90;;;;;;5074582;28;20565;-78
2023/09/28 00:18:00;;;;;;;7.10;6.40;;;14.70;99.90;;;;;;5073989;28;20569;-80
2023/09/28 00:20:27;;;;;;;7.03;6.10;;;14.70;99.90;;;;;;5073544;28;20185;-78
2023/09/28 00:22:55;;;;;;;9.10;7.13;;;14.70;99.90;;;;;;5060186;28;20210;-80
2023/09/28 00:25:23;;;;;;;7.37;6.67;;;14.70;99.90;;;;;;5097667;28;20171;-81
2023/09/28 00:27:50;;;;;;;7.27;6.50;;;14.70;99.90;;;;;;5086842;28;20700;-79
2023/09/28 00:30:21;;;;;;;8.77;6.77;;;14.70;99.90;;;;;;5080320;28;20177;-78
2023/09/28 00:32:57;;;;;;;7.20;6.60;;;14.60;99.90;;;;;;5079738;28;20152;-79
2023/09/28 00:35:24;;;;;;;8.00;6.17;;;14.60;99.90;;;;;;5078099;28;20220;-79
2023/09/28 00:37:50;;;;;;;7.50;6.30;;;14.60;99.90;;;;;;5073711;28;20171;-79
2023/09/28 00:40:19;;;;;;;7.03;6.40;;;14.60;99.90;;;;;;5079891;28;20172;-79
2023/09/28 00:42:46;;;;;;;8.43;6.60;;;14.60;99.90;;;;;;5077581;28;20639;-78
2023/09/28 00:45:12;;;;;;;7.43;6.47;;;14.60;99.90;;;;;;5077629;28;20179;-78
2023/09/28 00:47:39;;;;;;;8.03;6.17;;;14.60;99.90;;;;;;5078718;28;20580;-79
2023/09/28 00:50:10;;;;;;;7.10;6.47;;;14.60;99.90;;;;;;5080506;28;20623;-79
2023/09/28 00:52:40;;;;;;;6.53;5.93;;;14.60;99.90;;;;;;5077865;28;20187;-78
2023/09/28 00:55:08;;;;;;;6.37;5.77;;;14.60;99.90;;;;;;5077555;28;20187;-79
2023/09/28 00:57:35;;;;;;;7.37;6.07;;;14.60;99.90;;;;;;5077760;28;20255;-78
2023/09/28 01:00:09;;;;;;;7.13;6.50;;;14.60;99.90;;;;;;5077825;28;20253;-78
2023/09/28 01:02:35;;;;;;;7.33;6.33;;;14.60;99.90;;;;;;5077121;28;20222;-80
2023/09/28 01:05:04;;;;;;;7.07;6.47;;;14.60;99.90;;;;;;5059840;28;20538;-79
2023/09/28 01:07:30;;;;;;;7.13;6.07;;;14.60;99.90;;;;;;5082179;28;20171;-77
2023/09/28 01:09:57;;;;;;;7.70;6.13;;;14.60;99.90;;;;;;5086310;28;20163;-79
2023/09/28 01:12:23;;;;;;;7.37;6.60;;;14.60;99.90;;;;;;5078648;28;20175;-79
2023/09/28 01:14:53;;;;;;;6.93;6.23;;;14.60;99.90;;;;;;5077419;28;20761;-79
2023/09/28 01:17:19;;;;;;;8.97;6.53;;;14.60;99.90;;;;;;5078755;28;20233;-78
2023/09/28 01:19:44;;;;;;;8.17;6.07;;;14.60;99.90;;;;;;5100889;28;20153;-81
2023/09/28 01:22:14;;;;;;;7.50;6.80;;;14.60;99.90;;;;;;5093398;28;20222;-78
2023/09/28 01:24:40;;;;;;;9.53;6.53;;;14.60;99.90;;;;;;5078786;28;20631;-77
2023/09/28 01:27:08;;;;;;;10.40;6.30;;;14.50;99.90;;;;;;5080472;28;20182;-79
2023/09/28 01:29:34;;;;;;;7.50;6.80;;;14.50;99.90;;;;;;5090780;28;20512;-79
2023/09/28 01:32:00;;;;;;;7.70;6.97;;;14.50;99.90;;;;;;5087892;28;20182;-81
2023/09/28 01:34:26;;;;;;;6.90;6.30;;;14.40;99.90;;;;;;5089198;28;20199;-78
2023/09/28 01:36:51;;;;;;;8.77;6.43;;;14.40;99.90;;;;;;5076496;28;20167;-78
2023/09/28 01:39:17;;;;;;;9.90;6.47;;;14.40;99.90;;;;;;5076849;28;20205;-80
2023/09/28 01:41:43;;;;;;;7.23;6.33;;;14.30;99.90;;;;;;5076126;28;20167;-78
2023/09/28 01:44:09;;;;;;;7.30;6.60;;;14.30;99.90;;;;;;5078062;28;20185;-80
2023/09/28 01:46:34;;;;;;;8.00;6.70;;;14.30;99.90;;;;;;5080601;28;20167;-80
2023/09/28 01:49:00;;;;;;;9.53;7.17;;;14.20;99.90;;;;;;5096004;28;20187;-78
2023/09/28 01:51:26;;;;;;;8.17;6.77;;;14.20;99.90;;;;;;5080943;28;20167;-77
2023/09/28 01:53:52;;;;;;;6.93;5.83;;;14.20;99.90;;;;;;5076408;28;20302;-78
2023/09/28 01:56:18;;;;;;;7.83;6.37;;;14.20;99.90;;;;;;5076223;28;20175;-77
2023/09/28 01:58:44;;;;;;;7.53;6.57;;;14.20;99.90;;;;;;5076795;28;20232;-78
2023/09/28 02:01:21;;;;;;;7.50;6.63;;;14.20;99.90;;;;;;5076383;28;20234;-77
2023/09/28 02:03:47;;;;;;;7.70;6.37;;;14.20;99.90;;;;;;5077442;28;20159;-78
2023/09/28 02:06:14;;;;;;;6.90;6.30;;;14.20;99.90;;;;;;5077407;28;20227;-78
2023/09/28 02:08:40;;;;;;;7.93;6.80;;;14.10;99.90;;;;;;5079344;28;20163;-79
2023/09/28 02:11:06;;;;;;;7.10;6.40;;;14.10;99.90;;;;;;5079085;28;20171;-78
2023/09/28 02:13:32;;;;;;;7.97;6.83;;;14.10;99.90;;;;;;5084637;28;20258;-78
2023/09/28 02:15:57;;;;;;;7.13;6.47;;;14.10;99.90;;;;;;5076735;28;20171;-78
2023/09/28 02:18:23;;;;;;;7.27;6.57;;;14.10;99.90;;;;;;5076359;28;20173;-78
2023/09/28 02:20:49;;;;;;;9.20;6.10;;;14.10;99.90;;;;;;5076161;28;20187;-78
2023/09/28 02:23:15;;;;;;;9.63;6.87;;;14.00;99.90;;;;;;5075625;28;20199;-78
2023/09/28 02:25:40;;;;;;;6.97;6.27;;;14.00;99.90;;;;;;5075854;28;20234;-78
2023/09/28 02:28:06;;;;;;;8.10;6.80;;;14.00;99.90;;;;;;5077389;28;20163;-80
2023/09/28 02:30:32;;;;;;;8.67;6.70;;;14.30;99.90;;;;;;5076539;28;20183;-78
2023/09/28 02:32:58;;;;;;;6.57;6.03;;;13.90;99.90;;;;;;5075692;28;20164;-77
2023/09/28 02:35:24;;;;;;;9.53;6.30;;;13.90;99.90;;;;;;5075809;28;20171;-79
2023/09/28 02:37:51;;;;;;;6.67;6.07;;;13.80;99.90;;;;;;5058069;28;20187;-80
2023/09/28 02:40:19;;;;;;;8.80;6.60;;;13.90;99.90;;;;;;5057424;28;20182;-79
2023/09/28 02:42:48;;;;;;;7.13;6.43;;;13.80;99.90;;;;;;5082286;28;20197;-78
2023/09/28 02:45:14;;;;;;;7.10;6.47;;;13.80;99.90;;;;;;5068461;28;20179;-78
2023/09/28 02:47:45;;;;;;;8.50;6.70;;;13.80;99.90;;;;;;5075888;28;20313;-78
2023/09/28 02:50:13;;;;;;;7.60;6.80;;;13.70;99.90;;;;;;5076205;28;20181;-78
2023/09/28 02:52:40;;;;;;;9.60;7.03;;;13.80;99.90;;;;;;5060616;28;20263;-78
2023/09/28 02:55:07;;;;;;;10.77;7.20;;;13.80;99.90;;;;;;5092206;28;20173;-80
2023/09/28 02:57:34;;;;;;;7.90;6.57;;;13.80;99.90;;;;;;5079616;28;20171;-79
2023/09/28 03:00:00;;;;;;;7.70;7.07;;;13.80;99.90;;;;;;5057398;28;20631;-79
2023/09/28 03:02:26;;;;;;;8.03;6.87;;;13.80;99.90;;;;;;5075425;28;20289;-78
2023/09/28 03:04:52;;;;;;;7.20;6.60;;;13.80;99.90;;;;;;5075312;28;20194;-78
2023/09/28 03:07:19;;;;;;;9.53;6.97;;;13.80;99.90;;;;;;5077483;28;20534;-78
2023/09/28 03:09:44;;;;;;;9.60;7.00;;;13.80;99.90;;;;;;5098576;28;20164;-79
2023/09/28 03:12:11;;;;;;;7.50;6.77;;;13.80;99.90;;;;;;5090548;28;20175;-78
2023/09/28 03:14:37;;;;;;;7.77;6.93;;;13.90;99.90;;;;;;5074970;28;20684;-77
2023/09/28 03:17:05;;;;;;;7.73;6.90;;;13.90;99.90;;;;;;5074792;28;20175;-78
2023/09/28 03:19:31;;;;;;;11.70;7.10;;;13.90;99.90;;;;;;5074951;28;20655;-79
2023/09/28 03:21:57;;;;;;;9.43;7.37;;;13.90;99.90;;;;;;5056937;28;20179;-77
2023/09/28 03:24:23;;;;;;;8.73;7.07;;;13.90;99.90;;;;;;5074618;28;20703;-78
2023/09/28 03:26:50;;;;;;;8.17;6.63;;;13.90;99.90;;;;;;5075832;28;20174;-79
2023/09/28 03:29:16;;;;;;;7.90;7.20;;;13.90;99.90;;;;;;5085916;28;20198;-78
2023/09/28 03:31:41;;;;;;;7.57;6.77;;;13.90;99.90;;;;;;5082726;28;20627;-79
2023/09/28 03:34:07;;;;;;;8.40;7.27;;;13.80;99.90;;;;;;5074802;28;20207;-78
2023/09/28 03:36:33;;;;;;;8.13;7.30;;;13.80;99.90;;;;;;5074806;28;20184;-76
2023/09/28 03:39:00;;;;;;;8.50;6.80;;;13.70;99.90;;;;;;5074689;28;20178;-77
2023/09/28 03:41:26;;;;;;;6.97;6.37;;;13.70;99.90;;;;;;5076578;28;20201;-78
2023/09/28 03:43:53;;;;;;;11.00;7.77;;;13.70;99.90;;;;;;5085189;28;20167;-79
2023/09/28 03:46:19;;;;;;;7.70;6.90;;;13.60;99.90;;;;;;5063219;28;20241;-79
2023/09/28 03:48:45;;;;;;;7.90;6.67;;;13.60;99.90;;;;;;5049827;28;20205;-79
2023/09/28 03:51:11;;;;;;;8.00;7.23;;;13.60;99.90;;;;;;5077433;28;20210;-77
2023/09/28 03:53:40;;;;;;;8.37;7.47;;;13.60;99.90;;;;;;5075436;28;20199;-77
2023/09/28 03:56:06;;;;;;;8.93;6.30;;;13.60;99.90;;;;;;5074311;28;20178;-76
2023/09/28 03:58:33;;;;;;;9.13;6.83;;;13.60;99.90;;;;;;5074621;28;20554;-77
2023/09/28 04:00:59;;;;;;;7.67;6.87;;;13.50;99.90;;;;;;5073965;28;20322;-77
2023/09/28 04:03:24;;;;;;;7.17;6.57;;;13.50;99.90;;;;;;5059459;28;20211;-78
2023/09/28 04:05:50;;;;;;;7.87;7.13;;;13.50;99.90;;;;;;5043881;28;20176;-78
2023/09/28 04:08:16;;;;;;;8.43;7.00;;;13.50;99.90;;;;;;5058558;28;20297;-78
2023/09/28 04:10:42;;;;;;;7.63;6.93;;;13.50;99.90;;;;;;5058950;28;20309;-77
2023/09/28 04:13:08;;;;;;;9.67;7.83;;;13.50;99.90;;;;;;5059470;28;20242;-78
2023/09/28 04:15:34;;;;;;;7.17;6.47;;;13.40;99.90;;;;;;5059363;28;20635;-79
2023/09/28 04:18:00;;;;;;;10.33;7.10;;;13.40;99.90;;;;;;5063942;28;20245;-78
2023/09/28 04:20:26;;;;;;;7.93;6.80;;;13.40;99.90;;;;;;5069170;28;20175;-78
2023/09/28 04:22:52;;;;;;;7.00;6.43;;;13.30;99.90;;;;;;5061611;28;20691;-78
2023/09/28 04:25:20;;;;;;;7.80;7.00;;;13.30;99.90;;;;;;5060038;28;20201;-77
2023/09/28 04:27:47;;;;;;;7.17;6.03;;;13.30;99.90;;;;;;5058534;28;20171;-78
2023/09/28 04:30:13;;;;;;;8.57;6.87;;;13.30;99.90;;;;;;5073011;28;20296;-79
2023/09/28 04:32:39;;;;;;;8.40;7.23;;;13.30;99.90;;;;;;5064062;28;20172;-78
2023/09/28 04:35:10;;;;;;;7.80;6.97;;;13.30;99.90;;;;;;5057461;28;20226;-77
2023/09/28 04:37:37;;;;;;;7.90;6.53;;;13.20;99.90;;;;;;5057352;28;20198;-78
2023/09/28 04:40:08;;;;;;;7.40;6.63;;;13.20;99.90;;;;;;5057592;28;20176;-79
2023/09/28 04:42:34;;;;;;;7.03;6.43;;;13.20;99.90;;;;;;5058201;28;20670;-78
2023/09/28 04:44:59;;;;;;;7.07;6.33;;;13.20;99.90;;;;;;5057684;28;20172;-77
2023/09/28 04:47:25;;;;;;;7.23;6.57;;;13.20;99.90;;;;;;5061994;28;20176;-78
2023/09/28 04:49:51;;;;;;;7.73;6.90;;;13.30;99.90;;;;;;5059753;28;20244;-78
2023/09/28 04:52:17;;;;;;;10.40;7.07;;;13.20;99.90;;;;;;5057528;28;20179;-79
2023/09/28 04:54:43;;;;;;;8.00;7.20;;;13.20;99.90;;;;;;5057562;28;20203;-78
2023/09/28 04:57:09;;;;;;;8.37;6.47;;;13.10;99.90;;;;;;5063985;28;20215;-77
2023/09/28 04:59:38;;;;;;;10.87;8.03;;;13.10;99.90;;;;;;5076661;28;20168;-79
2023/09/28 05:02:04;;;;;;;9.10;6.40;;;13.10;99.90;;;;;;5064509;28;20242;-78
2023/09/28 05:04:30;;;;;;;12.93;7.63;;;13.10;99.90;;;;;;5057541;28;20183;-77
2023/09/28 05:06:56;;;;;;;7.10;6.30;;;13.10;99.90;;;;;;5057046;28;20171;-81
2023/09/28 05:09:21;;;;;;;7.50;6.60;;;13.10;99.90;;;;;;5071582;28;20227;-78
2023/09/28 05:11:47;;;;;;;7.03;6.43;;;13.20;99.90;;;;;;5067561;28;20199;-78
2023/09/28 05:14:13;;;;;;;10.13;7.17;;;13.20;99.90;;;;;;5057027;28;20211;-76
2023/09/28 05:16:39;;;;;;;7.63;6.83;;;13.20;99.90;;;;;;5055657;28;20298;-77
2023/09/28 05:19:04;;;;;;;7.17;5.97;;;13.20;99.90;;;;;;5038999;28;20317;-80
2023/09/28 05:21:30;;;;;;;7.67;6.40;;;13.20;99.90;;;;;;5072794;28;20176;-78
2023/09/28 05:23:56;;;;;;;8.10;7.30;;;13.20;99.90;;;;;;5056818;28;20572;-78
2023/09/28 05:26:21;;;;;;;7.27;6.67;;;13.20;99.90;;;;;;5056848;28;20199;-78
2023/09/28 05:28:47;;;;;;;7.27;6.67;;;13.20;99.90;;;;;;5056277;28;20180;-77
2023/09/28 05:31:13;;;;;;;12.87;7.03;;;13.20;99.90;;;;;;5037942;28;20183;-77
2023/09/28 05:33:39;;;;;;;9.37;6.77;;;13.20;99.90;;;;;;5055948;28;20221;-78
2023/09/28 05:36:05;;;;;;;8.87;6.90;;;13.30;99.90;;;;;;5057645;28;20176;-78
2023/09/28 05:38:31;;;;;;;8.77;7.30;;;13.30;99.90;;;;;;5056463;28;20561;-79
2023/09/28 05:40:57;;;;;;;11.70;6.93;;;13.40;99.90;;;;;;5057383;28;20197;-78
2023/09/28 05:43:22;;;;;;;8.53;7.27;;;13.50;99.90;;;;;;5041674;28;20188;-78
2023/09/28 05:45:48;;;;;;;9.20;6.60;;;13.50;99.90;;;;;;5075709;28;20183;-79
2023/09/28 05:48:14;;;;;;;10.47;7.40;;;13.60;99.90;;;;;;5065382;28;20635;-78
2023/09/28 05:50:41;;;;;;;11.00;7.33;;;13.60;99.90;;;;;;5060914;28;20176;-79
2023/09/28 05:53:07;;;;;;;9.27;8.03;;;13.60;99.90;;;;;;5063914;28;20748;-78
2023/09/28 05:55:33;;;;;;;8.13;7.43;;;13.70;99.90;;;;;;5067479;28;20207;-77
2023/09/28 05:57:58;;;;;;;8.70;7.40;;;13.70;99.90;;;;;;5057145;28;20251;-77
2023/09/28 06:00:24;;;;;;;12.17;7.43;;;13.90;99.90;;;;;;5056164;28;20693;-78
2023/09/28 06:02:50;;;;;;;12.27;7.47;;;13.90;99.90;;;;;;5035692;28;20250;-77
2023/09/28 06:05:16;;;;;;;10.17;7.37;;;14.10;99.90;;;;;;5046281;28;20192;-78
2023/09/28 06:07:42;;;;;;;10.40;7.50;;;14.10;99.90;;;;;;5051116;28;20176;-79
2023/09/28 06:10:08;;;;;;;12.80;7.80;;;14.20;99.90;;;;;;5038076;28;20223;-77
2023/09/28 06:12:34;;;;;;;9.53;6.80;;;14.30;99.90;;;;;;5038561;28;20259;-78
2023/09/28 06:15:01;;;;;;;10.13;6.80;;;14.40;99.90;;;;;;5038118;28;20223;-83
2023/09/28 06:17:27;;;;;;;7.33;6.63;;;14.40;99.90;;;;;;5036738;28;20526;-79
2023/09/28 06:19:53;;;;;;;14.57;7.87;;;14.50;99.90;;;;;;5036669;28;20187;-79
2023/09/28 06:22:18;;;;;;;9.00;6.43;;;14.60;99.90;;;;;;5036481;28;20171;-77
2023/09/28 06:24:44;;;;;;;7.87;6.67;;;14.60;99.90;;;;;;5035468;28;20188;-79
2023/09/28 06:27:10;;;;;;;7.20;6.50;;;14.60;99.90;;;;;;5034657;28;20180;-78
2023/09/28 06:29:36;;;;;;;7.83;6.73;;;14.60;99.90;;;;;;5036505;28;20176;-79
2023/09/28 06:32:03;;;;;;;8.07;6.43;;;14.70;99.90;;;;;;5046141;28;20251;-80
2023/09/28 06:34:29;;;;;;;10.20;6.40;;;14.70;99.90;;;;;;5041386;28;20200;-79
2023/09/28 06:36:54;;;;;;;10.43;6.70;;;14.80;99.90;;;;;;5036139;28;20555;-78
2023/09/28 06:39:20;;;;;;;7.67;6.87;;;14.80;99.90;;;;;;5041047;28;20181;-78
2023/09/28 06:41:46;;;;;;;9.77;7.07;;;14.80;99.90;;;;;;5037269;28;20169;-78
2023/09/28 06:44:12;;;;;;;9.00;6.63;;;14.90;99.90;;;;;;5038140;28;20180;-80
2023/09/28 06:46:38;;;;;;;7.07;6.47;;;14.90;99.90;;;;;;5056583;28;20206;-78
2023/09/28 06:49:08;;;;;;;8.80;7.27;;;15.00;99.90;;;;;;5077297;28;20161;-77
2023/09/28 06:51:34;;;;;;;8.60;6.63;;;15.10;99.90;;;;;;5069146;28;20628;-78
2023/09/28 06:54:00;;;;;;;7.23;6.23;;;15.10;99.90;;;;;;5058720;28;20208;-79
2023/09/28 06:56:26;;;;;;;9.13;6.83;;;15.10;99.90;;;;;;5066458;28;20235;-78
2023/09/28 06:58:53;;;;;;;7.53;6.73;;;15.20;99.90;;;;;;5054805;28;20228;-79
2023/09/28 07:01:19;;;;;;;7.43;6.53;;;15.30;99.90;;;;;;5055507;28;20228;-78
2023/09/28 07:03:45;;;;;;;7.23;6.47;;;15.30;99.90;;;;;;5055620;28;20156;-79
2023/09/28 07:06:12;;;;;;;10.87;6.53;;;15.40;99.90;;;;;;5055321;28;20513;-79
2023/09/28 07:08:37;;;;;;;10.50;6.20;;;15.40;99.90;;;;;;5054876;28;20167;-79
2023/09/28 07:11:04;;;;;;;6.93;6.23;;;15.50;99.90;;;;;;5053728;28;20225;-79
2023/09/28 07:13:30;;;;;;;8.13;6.80;;;15.60;99.90;;;;;;5054589;28;20188;-79
2023/09/28 07:15:58;;;;;;;10.67;7.00;;;15.60;99.90;;;;;;5055050;28;20198;-78
2023/09/28 07:18:25;;;;;;;13.10;6.73;;;15.70;99.90;;;;;;5054985;28;20175;-78
2023/09/28 07:20:51;;;;;;;7.53;6.33;;;15.80;99.90;;;;;;5054699;28;20769;-79
2023/09/28 07:23:17;;;;;;;7.93;6.07;;;15.90;99.90;;;;;;5055059;28;20233;-79
2023/09/28 07:25:43;;;;;;;7.57;5.93;;;15.90;99.90;;;;;;5055254;28;20259;-79
2023/09/28 07:28:09;;;;;;;11.40;7.57;;;16.00;99.90;;;;;;5054846;28;20170;-80
2023/09/28 07:30:35;;;;;;;8.83;6.57;;;16.10;99.90;;;;;;5067501;28;20243;-81
2023/09/28 07:33:01;;;;;;;8.83;6.00;;;16.20;99.90;;;;;;5059063;28;20549;-79
2023/09/28 07:35:27;;;;;;;9.20;6.50;;;16.30;99.90;;;;;;5054401;28;20188;-79
2023/09/28 07:37:53;;;;;;;9.10;5.90;;;16.30;99.90;;;;;;5057381;28;20172;-79
2023/09/28 07:40:24;;;;;;;7.70;6.73;;;16.40;99.90;;;;;;5068288;28;20540;-80
2023/09/28 07:42:50;;;;;;;10.83;6.37;;;16.40;99.90;;;;;;5073928;28;20160;-79
2023/09/28 07:45:18;;;;;;;10.47;6.47;;;16.50;99.90;;;;;;5058156;28;20190;-78
2023/09/28 07:47:44;;;;;;;8.03;6.30;;;16.70;99.90;;;;;;5055175;28;20207;-78
2023/09/28 07:50:11;;;;;;;8.13;6.53;;;16.70;99.90;;;;;;5054916;28;20164;-81
2023/09/28 07:52:38;;;;;;;9.37;6.70;;;16.70;99.90;;;;;;5055368;28;20919;-78
2023/09/28 07:55:05;;;;;;;9.57;5.97;;;16.80;99.90;;;;;;5055912;28;20208;-79
2023/09/28 07:57:32;;;;;;;7.97;6.03;;;16.90;99.90;;;;;;5055676;28;20172;-79
2023/09/28 07:59:58;;;;;;;10.77;7.23;;;16.90;99.90;;;;;;5053971;28;20180;-78
2023/09/28 08:02:24;;;;;;;7.93;6.43;;;17.00;99.90;;;;;;5070577;28;20218;-78
2023/09/28 08:04:51;;;;;;;6.50;5.90;;;17.10;99.90;;;;;;5074865;28;20300;-78
2023/09/28 08:07:18;;;;;;;9.07;6.30;;;17.10;99.90;;;;;;5074999;28;20204;-78
2023/09/28 08:09:43;;;;;;;6.30;5.70;;;17.20;99.90;;;;;;5074102;28;20257;-78
2023/09/28 08:12:09;;;;;;;8.93;5.97;;;17.30;99.90;;;;;;5086378;28;20229;-77
2023/09/28 08:14:35;;;;;;;7.23;6.63;;;17.50;99.90;;;;;;5060979;28;20203;-77
2023/09/28 08:17:01;;;;;;;9.53;6.50;;;17.50;99.90;;;;;;5075266;28;20163;-80
2023/09/28 08:19:26;;;;;;;8.37;6.17;;;17.60;99.90;;;;;;5074779;28;20576;-76
2023/09/28 08:21:52;;;;;;;7.77;5.93;;;17.70;99.90;;;;;;5074644;28;20663;-78
2023/09/28 08:24:18;;;;;;;8.80;5.83;;;17.70;99.90;;;;;;5085322;28;20491;-78
2023/09/28 08:26:44;;;;;;;8.70;6.10;;;17.70;99.90;;;;;;5078905;28;20635;-78
2023/09/28 08:29:10;;;;;;;8.13;6.37;;;17.80;99.90;;;;;;5074916;28;20889;-79
2023/09/28 08:31:35;;;;;;;6.93;6.23;;;17.90;99.90;;;;;;5085625;28;20179;-82
2023/09/28 08:34:03;;;;;;;7.50;5.90;;;18.00;99.90;;;;;;5076057;28;20213;-78
2023/09/28 08:36:29;;;;;;;9.23;5.90;;;18.10;99.90;;;;;;5078483;28;20163;-80
2023/09/28 08:38:56;;;;;;;9.90;6.43;;;18.10;99.90;;;;;;5088678;28;20175;-78
2023/09/28 08:41:55;;;;;;;9.37;6.43;;;18.20;99.90;;;;;;5080799;28;20588;-77
2023/09/28 08:44:26;;;;;;;6.90;6.20;;;18.30;99.90;;;;;;5056081;28;20187;-78
2023/09/28 08:46:57;;;;;;;8.90;6.13;;;18.40;99.90;;;;;;5074302;28;20202;-79
2023/09/28 08:49:27;;;;;;;8.17;6.33;;;18.50;99.90;;;;;;5074135;28;20261;-78
2023/09/28 08:51:54;;;;;;;6.73;5.97;;;18.50;99.90;;;;;;5045711;28;20236;-79
2023/09/28 08:54:23;;;;;;;7.93;6.10;;;18.60;99.90;;;;;;5079561;28;20211;-78
2023/09/28 08:56:54;;;;;;;8.47;5.60;;;18.70;99.90;;;;;;5080891;28;20181;-78
2023/09/28 08:59:20;;;;;;;9.03;6.00;;;18.80;99.90;;;;;;5079430;28;20260;-79
2023/09/28 09:01:47;;;;;;;7.90;5.10;;;18.90;99.90;;;;;;5079775;28;20719;-77
2023/09/28 09:04:14;;;;;;;8.27;5.70;;;18.90;99.90;;;;;;5078337;28;20175;-78
2023/09/28 09:06:42;;;;;;;6.30;5.77;;;19.10;99.90;;;;;;5084286;28;20178;-78
2023/09/28 09:09:13;;;;;;;10.23;6.50;;;19.10;99.90;;;;;;5086894;28;20163;-80
2023/09/28 09:11:49;;;;;;;8.57;6.50;;;19.20;99.90;;;;;;5081266;28;20210;-78
2023/09/28 09:14:15;;;;;;;6.80;5.13;;;19.30;99.90;;;;;;5071731;28;20199;-78
2023/09/28 09:16:41;;;;;;;6.50;5.13;;;19.40;99.90;;;;;;5078789;28;20174;-78
2023/09/28 09:19:07;;;;;;;7.70;5.40;;;19.40;99.90;;;;;;5091261;28;20210;-80
2023/09/28 09:21:44;;;;;;;9.83;5.00;;;19.50;99.90;;;;;;5084738;28;20201;-79
2023/09/28 09:24:13;;;;;;;6.60;5.27;;;19.60;99.90;;;;;;5078309;28;20232;-78
2023/09/28 09:26:42;;;;;;;8.37;5.20;;;19.70;99.90;;;;;;5080777;28;20171;-79
2023/09/28 09:29:10;;;;;;;6.10;5.13;;;19.80;99.90;;;;;;5082067;28;20178;-77
2023/09/28 09:31:40;;;;;;;6.87;6.20;;;19.80;99.90;;;;;;5077890;28;20193;-76
2023/09/28 09:34:11;;;;;;;5.93;5.37;;;19.90;99.90;;;;;;5077678;28;20252;-77
2023/09/28 09:36:37;;;;;;;5.50;5.00;;;19.90;99.90;;;;;;5071155;28;20182;-78
2023/09/28 09:39:03;;;;;;;7.47;5.03;;;20.00;99.90;;;;;;5087368;28;20178;-78
2023/09/28 09:41:29;;;;;;;6.03;5.50;;;20.00;99.90;;;;;;5076550;28;20175;-77
2023/09/28 09:43:58;;;;;;;6.67;5.13;;;20.00;99.90;;;;;;5076809;28;20225;-76
2023/09/28 09:46:25;;;;;;;5.40;4.90;;;20.00;99.90;;;;;;5077081;28;20179;-77
2023/09/28 09:48:52;;;;;;;8.50;5.10;;;20.10;99.90;;;;;;5076756;28;20254;-77
2023/09/28 09:51:18;;;;;;;7.97;5.10;;;19.80;99.90;;;;;;5076456;28;20618;-77
2023/09/28 09:53:47;;;;;;;10.43;5.40;;;20.30;99.90;;;;;;5076505;28;20202;-77
2023/09/28 09:56:17;;;;;;;7.20;5.03;;;20.30;99.90;;;;;;5076473;28;20175;-77
2023/09/28 09:58:48;;;;;;;8.43;5.30;;;20.50;99.90;;;;;;5076631;28;20179;-76
2023/09/28 10:01:16;;;;;;;11.23;5.50;;;20.50;99.90;;;;;;5075983;28;20219;-77
2023/09/28 10:03:46;;;;;;;6.67;6.07;;;20.50;99.90;;;;;;5058870;28;20182;-77
2023/09/28 10:06:15;;;;;;;8.80;5.40;;;20.60;99.90;;;;;;5079983;28;20183;-78
2023/09/28 10:08:42;;;;;;;8.17;5.30;;;20.60;99.90;;;;;;5084130;28;20171;-77
2023/09/28 10:11:10;;;;;;;12.63;5.93;;;20.60;99.90;;;;;;5058216;28;20175;-79
2023/09/28 10:13:36;;;;;;;9.77;5.63;;;20.60;99.90;;;;;;5074492;28;20240;-78
2023/09/28 10:16:03;;;;;;;5.40;4.90;;;20.60;99.90;;;;;;5079642;28;20183;-78
2023/09/28 10:18:32;;;;;;;7.70;5.10;;;20.70;99.90;;;;;;5059010;28;20175;-78
2023/09/28 10:21:02;;;;;;;5.43;4.37;;;20.70;99.90;;;;;;5058053;28;20187;-79
2023/09/28 10:23:31;;;;;;;5.67;5.13;;;20.70;99.90;;;;;;5075974;28;20207;-78
2023/09/28 10:26:11;;;;;;;8.47;5.40;;;20.80;99.90;;;;;;5075696;28;20175;-78
2023/09/28 10:29:01;;;;;;;7.60;5.50;;;20.80;99.90;;;;;;5086379;28;20258;-79
2023/09/28 10:31:38;;;;;;;7.53;5.93;;;20.70;99.90;;;;;;5092296;28;20152;-78
2023/09/28 10:34:06;;;;;;;6.63;5.20;;;20.70;99.90;;;;;;5074880;28;20199;-80
2023/09/28 10:36:33;;;;;;;5.63;5.10;;;20.90;99.90;;;;;;5059106;28;20186;-78
2023/09/28 10:39:11;;;;;;;9.73;5.70;;;21.00;99.90;;;;;;5055893;28;20367;-77
2023/09/28 10:41:39;;;;;;;5.20;4.70;;;21.00;99.90;;;;;;5063886;28;20172;-80
2023/09/28 10:44:17;;;;;;;5.60;5.10;;;21.00;99.90;;;;;;5065890;28;20176;-78
2023/09/28 10:46:47;;;;;;;6.83;5.27;;;21.10;99.90;;;;;;5056902;28;20577;-78
2023/09/28 10:49:26;;;;;;;7.83;4.63;;;21.20;99.90;;;;;;5055761;28;20245;-80
2023/09/28 10:51:56;;;;;;;6.07;5.00;;;21.30;99.90;;;;;;5056186;28;20239;-79
2023/09/28 10:54:24;;;;;;;5.87;5.17;;;21.30;99.90;;;;;;5056549;28;20683;-79
2023/09/28 10:56:50;;;;;;;5.50;5.00;;;21.30;99.90;;;;;;5063535;28;20215;-79
2023/09/28 10:59:18;;;;;;;4.97;4.47;;;21.20;99.90;;;;;;5059612;28;20172;-78
2023/09/28 11:01:46;;;;;;;5.60;4.57;;;21.30;99.90;;;;;;5055303;28;20215;-79
2023/09/28 11:04:14;;;;;;;5.15;3.97;;;21.30;99.90;;;;;;5056341;28;20171;-78
2023/09/28 11:06:43;;;;;;;7.70;5.47;;;21.30;99.90;;;;;;5057084;28;20290;-77
2023/09/28 11:09:13;;;;;;;13.53;6.67;;;21.30;99.90;;;;;;5055360;28;20254;-78
2023/09/28 11:11:40;;;;;;;6.37;4.43;;;21.40;99.90;;;;;;5055963;28;20156;-77
2023/09/28 11:14:06;;;;;;;5.13;4.63;;;21.50;99.90;;;;;;5056550;28;20209;-79
2023/09/28 11:16:38;;;;;;;6.50;4.60;;;21.50;99.90;;;;;;5054712;28;20172;-77
2023/09/28 11:19:04;;;;;;;10.10;4.70;;;21.60;99.90;;;;;;5055161;28;20164;-77
2023/09/28 11:21:31;;;;;;;5.20;4.70;;;21.60;99.90;;;;;;5057899;28;20168;-76
2023/09/28 11:23:58;;;;;;;5.45;4.60;;;21.70;99.90;;;;;;5058354;28;20175;-77
2023/09/28 11:26:24;;;;;;;7.07;4.53;;;21.70;99.90;;;;;;5057973;28;20180;-77
2023/09/28 11:28:51;;;;;;;4.65;4.25;;;21.80;99.90;;;;;;5056348;28;20570;-78
2023/09/28 11:31:17;;;;;;;4.97;4.50;;;21.80;99.90;;;;;;5060581;28;20164;-79
2023/09/28 11:33:47;;;;;;;6.43;4.28;;;21.90;99.90;;;;;;5069804;28;20211;-79
2023/09/28 11:36:20;;;;;;;8.45;4.50;;;21.90;99.90;;;;;;5062841;28;20172;-79
2023/09/28 11:38:47;;;;;;;6.50;4.80;;;22.10;99.90;;;;;;5054947;28;20157;-77
2023/09/28 11:41:13;;;;;;;5.65;5.15;;;22.00;99.90;;;;;;5058994;28;20198;-79
2023/09/28 11:43:53;;;;;;;5.60;5.17;;;21.90;99.90;;;;;;5059755;28;20183;-80
2023/09/28 11:46:25;;;;;;;5.45;4.95;;;21.90;99.90;;;;;;5058333;28;20176;-79
2023/09/28 11:49:11;;;;;;;5.80;4.70;;;21.90;99.90;;;;;;5054942;28;20523;-77
2023/09/28 11:51:39;;;;;;;5.80;4.80;;;21.90;99.90;;;;;;5055067;28;20240;-78
2023/09/28 11:54:09;;;;;;;5.67;4.33;;;22.00;99.90;;;;;;5056049;28;20199;-77
2023/09/28 11:56:36;;;;;;;7.88;4.95;;;22.00;99.90;;;;;;5067871;28;20175;-79
2023/09/28 11:59:03;;;;;;;4.77;4.43;;;22.00;99.90;;;;;;5073782;28;20320;-78
2023/09/28 12:01:29;;;;;;;5.10;4.57;;;22.10;99.90;;;;;;5073695;28;20223;-80
2023/09/28 12:03:56;;;;;;;5.73;4.70;;;22.10;99.90;;;;;;5074606;28;20609;-77
2023/09/28 12:06:22;;;;;;;6.22;4.53;;;22.20;99.90;;;;;;5074264;28;20636;-80
2023/09/28 12:08:48;;;;;;;5.22;4.63;;;22.20;99.90;;;;;;5074409;28;20190;-80
2023/09/28 12:11:14;;;;;;;8.43;6.70;;;22.20;99.90;;;;;;5074553;28;20170;-79
2023/09/28 12:13:40;;;;;;;10.43;7.47;;;22.30;99.90;;;;;;5074076;28;20191;-78
2023/09/28 12:16:06;;;;;;;6.80;5.90;;;22.30;99.90;;;;;;5079403;28;20175;-80
2023/09/28 12:18:33;;;;;;;14.98;10.07;;;22.20;99.90;;;;;;5081699;28;20179;-80
2023/09/28 12:20:59;;;;;;;6.50;5.88;;;22.20;99.90;;;;;;5093625;28;20203;-78
2023/09/28 12:23:25;;;;;;;6.67;6.10;;;22.20;99.90;;;;;;5080473;28;20225;-80
2023/09/28 12:25:52;;;;;;;7.00;6.30;;;22.20;99.90;;;;;;5077643;28;20230;-78
2023/09/28 12:28:18;;;;;;;6.20;5.60;;;22.20;99.40;;;;;;5061095;28;20227;-79
2023/09/28 12:30:44;;;;;;;6.93;4.80;;;22.30;99.70;;;;;;5081949;28;20178;-79
2023/09/28 12:33:10;;;;;;;5.60;5.10;;;22.30;99.90;;;;;;5088081;28;20175;-79
2023/09/28 12:35:38;;;;;;;5.35;4.85;;;22.30;99.90;;;;;;5079949;28;20182;-80
2023/09/28 12:38:05;;;;;;;6.20;5.60;;;22.30;99.90;;;;;;5078278;28;20175;-79
2023/09/28 12:40:34;;;;;;;4.90;4.60;;;22.30;98.90;;;;;;5079562;28;20202;-78
2023/09/28 12:43:09;;;;;;;7.07;4.65;;;22.30;98.80;;;;;;5077744;28;20172;-78
2023/09/28 12:45:36;;;;;;;6.95;5.00;;;22.40;98.70;;;;;;5077237;28;20159;-77